Terminal Aerodrome Forecast
Issued by NWS

Home | Current Version | Previous Version | Text Only | Print | Product List | Glossary On
Versions: 1 2 3 4 5 6 7 8 9 10 11 12 13 14
330
FTUS45 KTFX 241139
TAFCTB
TAF
KCTB 241139Z 2412/2512 23020G30KT P6SM FEW100
     FM241500 25035G55KT P6SM FEW080
     FM242300 27035G50KT P6SM VCSH SCT040 BKN070
     FM250300 29030G45KT P6SM -SHRA SCT015 BKN030
     FM250600 30022G33KT P6SM -SHRA SCT015 BKN030=

USA.gov is the U.S. government's official web portal to all federal, state and local government web resources and services.